Time;durP1;ratioP1;P1;durP2;ratioP2;P2;SDS_P1;SDS_P2;PMS_P1;PMS_P2;Temp;Humidity;BMP_temperature;BMP_pressure;BME280_temperature;BME280_humidity;BME280_pressure;Samples;Min_cycle;Max_cycle;Signal;HPM_P1;HPM_P2
2022/12/23 00:02:11;;;;;;;95.32;58.55;;;;;;;;;;10316009;28;20087;-63
2022/12/23 00:07:09;;;;;;;111.35;65.30;;;;;;;;;;10317228;28;20083;-63
2022/12/23 00:17:24;;;;;;;90.32;54.20;;;;;;;;;;10316914;28;20079;-64
2022/12/23 00:23:03;;;;;;;92.95;54.78;;;;;;;;;;10313699;28;20068;-64
2022/12/23 00:27:41;;;;;;;93.70;49.13;;;;;;;;;;10315529;28;20497;-63
2022/12/23 00:32:41;;;;;;;88.60;51.58;;;;;;;;;;10297084;28;20056;-63
2022/12/23 00:37:39;;;;;;;96.35;57.13;;;;;;;;;;10315694;28;20103;-64
2022/12/23 00:42:56;;;;;;;129.05;71.90;;;;;;;;;;10314081;28;20441;-63
2022/12/23 00:53:11;;;;;;;101.80;55.55;;;;;;;;;;10305690;28;20447;-64
2022/12/23 00:58:09;;;;;;;96.57;58.78;;;;;;;;;;10288613;28;20076;-63
2022/12/23 01:08:28;;;;;;;101.03;58.92;;;;;;;;;;10315083;28;20072;-63
2022/12/23 01:13:26;;;;;;;103.53;55.33;;;;;;;;;;10314894;28;20040;-63
2022/12/23 01:18:25;;;;;;;89.95;57.05;;;;;;;;;;10313607;28;20076;-63
2022/12/23 01:23:24;;;;;;;92.72;52.85;;;;;;;;;;10314514;28;20068;-63
2022/12/23 01:28:22;;;;;;;109.95;63.72;;;;;;;;;;10314308;28;20059;-64
2022/12/23 01:33:20;;;;;;;100.00;56.67;;;;;;;;;;10314204;28;20052;-64
2022/12/23 01:38:20;;;;;;;96.35;59.65;;;;;;;;;;10314307;28;20087;-64
2022/12/23 01:43:19;;;;;;;92.30;54.42;;;;;;;;;;10313885;28;20079;-63
2022/12/23 01:48:19;;;;;;;93.32;55.30;;;;;;;;;;10311938;28;20111;-63
2022/12/23 01:53:19;;;;;;;102.72;56.35;;;;;;;;;;10315778;28;20048;-64
2022/12/23 01:58:20;;;;;;;88.03;57.45;;;;;;;;;;10320319;28;20090;-64
2022/12/23 02:19:37;;;;;;;57.95;41.78;;;;;;;;;;10320581;28;20071;-63
2022/12/23 02:24:50;;;;;;;76.07;49.58;;;;;;;;;;10320414;28;20079;-64
2022/12/23 02:30:07;;;;;;;95.32;58.50;;;;;;;;;;10273468;28;20083;-63
2022/12/23 02:35:11;;;;;;;101.65;60.85;;;;;;;;;;10319430;28;20076;-63
2022/12/23 02:40:12;;;;;;;101.40;61.13;;;;;;;;;;10320053;28;20071;-64
2022/12/23 02:45:13;;;;;;;66.32;40.72;;;;;;;;;;10318860;28;20041;-64
2022/12/23 02:50:15;;;;;;;92.78;53.28;;;;;;;;;;10318967;28;20048;-64
2022/12/23 02:55:15;;;;;;;60.90;37.40;;;;;;;;;;10319110;28;20064;-64
2022/12/23 03:00:14;;;;;;;85.95;51.70;;;;;;;;;;10318877;28;20488;-64
2022/12/23 03:05:28;;;;;;;44.40;28.38;;;;;;;;;;10317856;28;20072;-64
2022/12/23 03:10:29;;;;;;;45.90;30.15;;;;;;;;;;10288125;28;20041;-64
2022/12/23 03:15:33;;;;;;;67.75;38.97;;;;;;;;;;10278499;28;20048;-63
2022/12/23 03:20:36;;;;;;;44.55;28.33;;;;;;;;;;10277932;28;20458;-63
2022/12/23 03:25:37;;;;;;;71.15;41.38;;;;;;;;;;10317055;28;20449;-64
2022/12/23 03:30:36;;;;;;;71.85;37.03;;;;;;;;;;10318054;28;20049;-63
2022/12/23 03:35:38;;;;;;;75.93;39.83;;;;;;;;;;10318100;28;20041;-64
2022/12/23 03:40:37;;;;;;;57.53;36.58;;;;;;;;;;10317627;28;20068;-63
2022/12/23 03:45:37;;;;;;;102.47;64.32;;;;;;;;;;10317938;28;20052;-63
2022/12/23 03:50:41;;;;;;;99.70;58.22;;;;;;;;;;10318098;28;20067;-63
2022/12/23 03:55:42;;;;;;;76.03;48.60;;;;;;;;;;10314346;28;20064;-64
2022/12/23 04:00:48;;;;;;;74.22;48.72;;;;;;;;;;10298702;28;20624;-65
2022/12/23 04:05:50;;;;;;;85.55;49.08;;;;;;;;;;10317385;28;20048;-63
2022/12/23 04:10:48;;;;;;;100.05;61.10;;;;;;;;;;10298277;28;20409;-65
2022/12/23 04:15:46;;;;;;;157.40;94.05;;;;;;;;;;10316469;28;20045;-66
2022/12/23 04:20:45;;;;;;;149.15;91.72;;;;;;;;;;10315313;28;20068;-63
2022/12/23 04:25:44;;;;;;;125.20;84.80;;;;;;;;;;10300545;28;20051;-63
2022/12/23 04:30:42;;;;;;;110.72;81.60;;;;;;;;;;10314997;28;20083;-64
2022/12/23 04:35:41;;;;;;;96.65;59.30;;;;;;;;;;10314107;28;20449;-64
2022/12/23 04:40:39;;;;;;;110.40;56.40;;;;;;;;;;10315076;28;20086;-64
2022/12/23 04:45:39;;;;;;;130.93;64.78;;;;;;;;;;10315413;28;20037;-64
2022/12/23 04:50:37;;;;;;;154.40;66.75;;;;;;;;;;10314577;28;20049;-64
2022/12/23 04:55:35;;;;;;;138.88;75.65;;;;;;;;;;10315655;28;20044;-63
2022/12/23 05:00:34;;;;;;;132.95;80.90;;;;;;;;;;10314199;28;20071;-64
2022/12/23 05:05:42;;;;;;;158.40;97.55;;;;;;;;;;10314356;28;20064;-63
2022/12/23 05:10:40;;;;;;;131.25;64.18;;;;;;;;;;10314153;28;20520;-63
2022/12/23 05:15:38;;;;;;;125.50;57.72;;;;;;;;;;10314749;28;20049;-63
2022/12/23 05:20:38;;;;;;;145.07;77.30;;;;;;;;;;10305916;28;20087;-64
2022/12/23 05:25:37;;;;;;;140.13;70.80;;;;;;;;;;10314079;28;20426;-64
2022/12/23 05:30:35;;;;;;;120.00;67.60;;;;;;;;;;10319068;28;20434;-63
2022/12/23 05:35:33;;;;;;;117.15;65.55;;;;;;;;;;10320825;28;20432;-64
2022/12/23 05:40:33;;;;;;;156.10;88.70;;;;;;;;;;10316987;28;20556;-64
2022/12/23 05:45:34;;;;;;;144.02;85.15;;;;;;;;;;10318407;28;20064;-64
2022/12/23 05:50:32;;;;;;;169.68;110.78;;;;;;;;;;10319841;28;20084;-64
2022/12/23 05:55:34;;;;;;;137.38;80.85;;;;;;;;;;10318023;28;20060;-65
2022/12/23 06:00:32;;;;;;;150.50;97.30;;;;;;;;;;10316262;28;20517;-65
2022/12/23 06:05:30;;;;;;;141.98;92.78;;;;;;;;;;10320806;28;20044;-64
2022/12/23 06:10:29;;;;;;;145.38;92.72;;;;;;;;;;10320452;28;20507;-65
2022/12/23 06:15:29;;;;;;;139.90;96.63;;;;;;;;;;10320581;28;20086;-64
2022/12/23 06:20:27;;;;;;;142.38;100.47;;;;;;;;;;10319387;28;20083;-65
2022/12/23 06:25:25;;;;;;;76.63;49.80;;;;;;;;;;10320605;28;20490;-65
2022/12/23 06:30:24;;;;;;;71.35;43.85;;;;;;;;;;10280207;28;20053;-64
2022/12/23 06:35:23;;;;;;;83.47;55.80;;;;;;;;;;10278894;28;20083;-65
2022/12/23 06:40:22;;;;;;;55.72;34.47;;;;;;;;;;10318135;28;20221;-64
2022/12/23 06:45:20;;;;;;;61.25;41.40;;;;;;;;;;10317151;28;20056;-64
2022/12/23 06:50:19;;;;;;;53.78;33.05;;;;;;;;;;10319674;28;20053;-64
2022/12/23 06:55:18;;;;;;;65.05;42.72;;;;;;;;;;10318228;28;20091;-64
2022/12/23 07:00:17;;;;;;;99.35;57.88;;;;;;;;;;10318334;28;20104;-65
2022/12/23 07:05:16;;;;;;;49.90;30.52;;;;;;;;;;10318485;28;20072;-65
2022/12/23 07:10:14;;;;;;;55.88;33.55;;;;;;;;;;10316180;28;20513;-65
2022/12/23 07:15:14;;;;;;;51.00;34.55;;;;;;;;;;10316183;28;20075;-65
2022/12/23 07:20:13;;;;;;;78.85;46.10;;;;;;;;;;10316373;28;20095;-65
2022/12/23 07:25:12;;;;;;;59.22;39.25;;;;;;;;;;10314817;28;20056;-65
2022/12/23 07:30:11;;;;;;;130.45;75.72;;;;;;;;;;10310929;28;20064;-65
2022/12/23 07:35:10;;;;;;;82.65;53.83;;;;;;;;;;10317724;28;20055;-65
2022/12/23 07:40:09;;;;;;;55.38;37.88;;;;;;;;;;10313878;28;20068;-63
2022/12/23 07:45:08;;;;;;;94.35;62.00;;;;;;;;;;10313776;28;20072;-65
2022/12/23 07:50:06;;;;;;;167.80;110.60;;;;;;;;;;10312548;28;20076;-65
2022/12/23 07:55:07;;;;;;;65.60;44.22;;;;;;;;;;10312009;28;20060;-65
2022/12/23 08:00:07;;;;;;;46.28;31.27;;;;;;;;;;10311375;28;20074;-65
2022/12/23 08:05:11;;;;;;;48.72;32.33;;;;;;;;;;10312045;28;20501;-65
2022/12/23 08:10:11;;;;;;;49.28;33.42;;;;;;;;;;10314255;28;20071;-65
2022/12/23 08:15:10;;;;;;;47.95;33.35;;;;;;;;;;10296648;28;20071;-65
2022/12/23 08:20:08;;;;;;;57.83;38.00;;;;;;;;;;10314569;28;20509;-66
2022/12/23 08:25:07;;;;;;;45.47;33.40;;;;;;;;;;10315584;28;20047;-66
2022/12/23 08:30:07;;;;;;;75.30;50.50;;;;;;;;;;10315734;28;20044;-64
2022/12/23 08:35:06;;;;;;;50.08;34.67;;;;;;;;;;10315545;28;20043;-64
2022/12/23 08:40:06;;;;;;;46.78;31.45;;;;;;;;;;10313814;28;20080;-66
2022/12/23 08:45:05;;;;;;;78.10;45.15;;;;;;;;;;10314346;28;20064;-64
2022/12/23 08:50:05;;;;;;;48.10;32.63;;;;;;;;;;10315142;28;20063;-65
2022/12/23 08:55:03;;;;;;;55.20;34.60;;;;;;;;;;10314305;28;20041;-65
2022/12/23 09:00:01;;;;;;;59.17;39.75;;;;;;;;;;10313451;28;20115;-64
2022/12/23 09:04:59;;;;;;;62.95;42.30;;;;;;;;;;10321039;28;20485;-65
2022/12/23 09:09:59;;;;;;;53.50;41.42;;;;;;;;;;10323345;28;20043;-65
2022/12/23 09:14:57;;;;;;;65.35;43.33;;;;;;;;;;10322603;28;20524;-65
2022/12/23 09:19:55;;;;;;;54.78;38.25;;;;;;;;;;10322641;28;20067;-66
2022/12/23 09:24:54;;;;;;;51.90;34.83;;;;;;;;;;10322737;28;20044;-65
2022/12/23 09:30:01;;;;;;;59.90;39.85;;;;;;;;;;10305008;28;20049;-65
2022/12/23 09:34:59;;;;;;;64.85;46.17;;;;;;;;;;10307639;28;20076;-65
2022/12/23 09:39:57;;;;;;;97.80;62.08;;;;;;;;;;10322626;28;20095;-65
2022/12/23 09:45:01;;;;;;;66.20;46.00;;;;;;;;;;10323057;28;20052;-65
2022/12/23 09:50:02;;;;;;;60.42;42.40;;;;;;;;;;10314368;28;20049;-65
2022/12/23 09:55:00;;;;;;;60.15;39.70;;;;;;;;;;10319521;28;20533;-65
2022/12/23 10:00:04;;;;;;;68.20;45.92;;;;;;;;;;10321695;28;20099;-65
2022/12/23 10:05:06;;;;;;;65.53;42.77;;;;;;;;;;10303442;28;20399;-63
2022/12/23 10:10:08;;;;;;;65.75;40.22;;;;;;;;;;10321586;28;20044;-64
2022/12/23 10:15:15;;;;;;;209.77;105.15;;;;;;;;;;10303028;28;20044;-64
2022/12/23 10:20:17;;;;;;;58.45;39.50;;;;;;;;;;10321325;28;20076;-64
2022/12/23 10:25:20;;;;;;;65.95;43.83;;;;;;;;;;10320677;28;20494;-64
2022/12/23 10:30:19;;;;;;;60.33;42.10;;;;;;;;;;10321102;28;20044;-64
2022/12/23 10:35:42;;;;;;;67.95;49.85;;;;;;;;;;10320541;28;20056;-64
2022/12/23 10:40:45;;;;;;;83.15;55.20;;;;;;;;;;10319204;28;20083;-64
2022/12/23 10:45:48;;;;;;;54.05;37.40;;;;;;;;;;10320904;28;20043;-64
2022/12/23 10:50:57;;;;;;;68.85;47.30;;;;;;;;;;10321012;28;20044;-64
2022/12/23 10:55:56;;;;;;;61.90;41.85;;;;;;;;;;10319860;28;20052;-64
2022/12/23 11:00:55;;;;;;;53.85;37.45;;;;;;;;;;10320034;28;20554;-64
2022/12/23 11:05:53;;;;;;;71.70;46.67;;;;;;;;;;10320293;28;20067;-65
2022/12/23 11:10:53;;;;;;;64.78;46.90;;;;;;;;;;10319625;28;20033;-64
2022/12/23 11:15:52;;;;;;;133.63;78.90;;;;;;;;;;10318988;28;20037;-63
2022/12/23 11:21:03;;;;;;;45.60;34.50;;;;;;;;;;10319372;28;20151;-63
2022/12/23 11:26:04;;;;;;;34.92;26.30;;;;;;;;;;10318220;28;20049;-63
2022/12/23 11:31:07;;;;;;;69.22;42.55;;;;;;;;;;10318383;28;20045;-63
2022/12/23 11:36:07;;;;;;;36.80;29.45;;;;;;;;;;10318867;28;20051;-64
2022/12/23 11:41:07;;;;;;;35.25;26.85;;;;;;;;;;10318333;28;20076;-64
2022/12/23 11:46:16;;;;;;;35.67;23.75;;;;;;;;;;10318021;28;20067;-63
2022/12/23 11:51:24;;;;;;;33.35;25.58;;;;;;;;;;10317950;28;20052;-63
2022/12/23 11:56:26;;;;;;;37.50;27.35;;;;;;;;;;10318191;28;20489;-62
2022/12/23 12:01:25;;;;;;;45.10;28.42;;;;;;;;;;10317185;28;20072;-63
2022/12/23 12:06:23;;;;;;;47.50;30.90;;;;;;;;;;10318025;28;20083;-63
2022/12/23 12:11:25;;;;;;;38.05;28.67;;;;;;;;;;10317718;28;20052;-63
2022/12/23 12:16:34;;;;;;;46.03;31.70;;;;;;;;;;10316569;28;20502;-63
2022/12/23 12:21:34;;;;;;;72.57;46.53;;;;;;;;;;10317608;28;20072;-63
2022/12/23 12:26:36;;;;;;;47.17;33.00;;;;;;;;;;10316796;28;20075;-64
2022/12/23 12:31:37;;;;;;;54.20;41.60;;;;;;;;;;10316280;28;20051;-63
2022/12/23 12:36:39;;;;;;;70.25;44.75;;;;;;;;;;10316694;28;20045;-63
2022/12/23 12:41:38;;;;;;;77.72;48.63;;;;;;;;;;10316796;28;20072;-64
2022/12/23 12:46:40;;;;;;;66.43;44.20;;;;;;;;;;10315338;28;20076;-64
2022/12/23 12:51:43;;;;;;;59.80;44.28;;;;;;;;;;10316339;28;20056;-64
2022/12/23 12:56:43;;;;;;;68.28;48.35;;;;;;;;;;10316621;28;20068;-63
2022/12/23 13:01:46;;;;;;;59.63;43.65;;;;;;;;;;10315813;28;20102;-63
2022/12/23 13:06:48;;;;;;;87.18;58.80;;;;;;;;;;10315461;28;20429;-64
2022/12/23 13:11:50;;;;;;;73.78;55.25;;;;;;;;;;10316381;28;20041;-62
2022/12/23 13:16:53;;;;;;;67.80;47.50;;;;;;;;;;10315416;28;20048;-63
2022/12/23 13:21:55;;;;;;;81.30;50.72;;;;;;;;;;10315275;28;20477;-64
2022/12/23 13:26:56;;;;;;;59.20;37.50;;;;;;;;;;10316169;28;20064;-64
2022/12/23 13:32:01;;;;;;;51.17;34.95;;;;;;;;;;10316093;28;20513;-63
2022/12/23 13:37:03;;;;;;;64.88;46.53;;;;;;;;;;10315306;28;20040;-64
2022/12/23 13:42:03;;;;;;;66.22;45.65;;;;;;;;;;10315639;28;20087;-62
2022/12/23 13:47:07;;;;;;;65.28;47.60;;;;;;;;;;10314577;28;20076;-63
2022/12/23 13:52:09;;;;;;;65.75;45.50;;;;;;;;;;10321178;28;20485;-63
2022/12/23 13:57:14;;;;;;;84.03;54.88;;;;;;;;;;10323140;28;20056;-64
2022/12/23 14:02:31;;;;;;;75.50;51.50;;;;;;;;;;10322960;28;20090;-64
2022/12/23 14:07:31;;;;;;;58.42;44.88;;;;;;;;;;10322264;28;20488;-64
2022/12/23 14:12:31;;;;;;;55.35;40.38;;;;;;;;;;10321447;28;20709;-63
2022/12/23 14:17:34;;;;;;;82.68;58.78;;;;;;;;;;10320418;28;20072;-63
2022/12/23 14:22:49;;;;;;;94.82;58.70;;;;;;;;;;10322029;28;20044;-63
2022/12/23 14:27:51;;;;;;;79.75;53.17;;;;;;;;;;10320925;28;20433;-63
2022/12/23 14:32:52;;;;;;;76.65;49.72;;;;;;;;;;10321282;28;20083;-63
2022/12/23 14:38:24;;;;;;;58.95;42.35;;;;;;;;;;10321582;28;20048;-63
2022/12/23 14:43:40;;;;;;;77.55;54.35;;;;;;;;;;10301441;28;20108;-62
2022/12/23 14:48:56;;;;;;;59.83;46.53;;;;;;;;;;10307269;28;20080;-63
2022/12/23 14:54:17;;;;;;;99.43;73.47;;;;;;;;;;10301652;28;20069;-63
2022/12/23 14:59:19;;;;;;;125.53;90.50;;;;;;;;;;10315399;28;20512;-63
2022/12/23 15:04:19;;;;;;;144.85;101.82;;;;;;;;;;10317149;28;20493;-63
2022/12/23 15:09:21;;;;;;;250.25;160.52;;;;;;;;;;10313377;28;20052;-63
2022/12/23 15:14:23;;;;;;;133.95;90.22;;;;;;;;;;10315694;28;20066;-64
2022/12/23 15:19:23;;;;;;;101.47;75.35;;;;;;;;;;10307384;28;20071;-64
2022/12/23 15:24:22;;;;;;;102.38;74.53;;;;;;;;;;10309656;28;20120;-64
2022/12/23 15:29:23;;;;;;;98.03;74.82;;;;;;;;;;10314300;28;20072;-64
2022/12/23 15:34:24;;;;;;;104.80;75.45;;;;;;;;;;10298292;28;20974;-62
2022/12/23 15:39:29;;;;;;;83.15;57.55;;;;;;;;;;10314188;28;20052;-63
2022/12/23 15:44:34;;;;;;;112.25;76.13;;;;;;;;;;10315734;28;20076;-63
2022/12/23 15:49:32;;;;;;;144.02;97.43;;;;;;;;;;10310947;28;20088;-62
2022/12/23 15:54:34;;;;;;;142.85;99.22;;;;;;;;;;10313577;28;20071;-61
2022/12/23 15:59:34;;;;;;;132.82;90.65;;;;;;;;;;10311849;28;20493;-62
2022/12/23 16:04:32;;;;;;;112.38;74.45;;;;;;;;;;10314523;28;20084;-62
2022/12/23 16:09:35;;;;;;;137.25;103.85;;;;;;;;;;10316616;28;20048;-63
2022/12/23 16:14:36;;;;;;;112.18;80.07;;;;;;;;;;10313837;28;20084;-64
2022/12/23 16:19:38;;;;;;;112.22;85.28;;;;;;;;;;10314661;28;20052;-62
2022/12/23 16:24:38;;;;;;;145.18;121.55;;;;;;;;;;10316783;28;20076;-62
2022/12/23 16:29:36;;;;;;;120.10;100.35;;;;;;;;;;10316510;28;20041;-62
2022/12/23 16:34:35;;;;;;;154.82;117.65;;;;;;;;;;10316476;28;20424;-63
2022/12/23 16:39:33;;;;;;;135.88;88.88;;;;;;;;;;10315602;28;20092;-63
2022/12/23 16:44:33;;;;;;;99.78;67.68;;;;;;;;;;10316029;28;20099;-62
2022/12/23 16:49:32;;;;;;;136.60;91.13;;;;;;;;;;10315866;28;20060;-62
2022/12/23 16:54:31;;;;;;;134.02;94.70;;;;;;;;;;10316461;28;20047;-62
2022/12/23 16:59:29;;;;;;;109.05;79.30;;;;;;;;;;10316246;28;20048;-63
2022/12/23 17:04:29;;;;;;;93.35;66.65;;;;;;;;;;10316185;28;20494;-63
2022/12/23 17:09:27;;;;;;;82.28;54.83;;;;;;;;;;10315456;28;20517;-63
2022/12/23 17:14:25;;;;;;;71.50;48.05;;;;;;;;;;10315696;28;20095;-63
2022/12/23 17:19:23;;;;;;;64.72;46.38;;;;;;;;;;10316168;28;20502;-63
2022/12/23 17:24:28;;;;;;;79.00;49.58;;;;;;;;;;10317052;28;20084;-63
2022/12/23 17:29:27;;;;;;;58.75;40.10;;;;;;;;;;10323335;28;20402;-62
2022/12/23 17:34:25;;;;;;;64.93;43.63;;;;;;;;;;10323005;28;20079;-63
2022/12/23 17:39:23;;;;;;;65.85;46.53;;;;;;;;;;10322545;28;20510;-64
2022/12/23 17:44:23;;;;;;;80.15;53.10;;;;;;;;;;10322064;28;20505;-62
2022/12/23 17:49:21;;;;;;;99.20;62.15;;;;;;;;;;10322501;28;20052;-62
2022/12/23 17:54:22;;;;;;;64.95;44.42;;;;;;;;;;10322201;28;20087;-63
2022/12/23 17:59:20;;;;;;;74.72;49.17;;;;;;;;;;10321658;28;20079;-64
2022/12/23 18:04:20;;;;;;;71.40;45.80;;;;;;;;;;10321076;28;20079;-63
2022/12/23 18:09:20;;;;;;;64.97;45.83;;;;;;;;;;10321763;28;20080;-63
2022/12/23 18:14:26;;;;;;;64.00;43.72;;;;;;;;;;10321178;28;20068;-63
2022/12/23 18:19:25;;;;;;;60.65;43.03;;;;;;;;;;10321513;28;20056;-63
2022/12/23 18:24:24;;;;;;;63.15;43.72;;;;;;;;;;10321214;28;20083;-63
2022/12/23 18:29:22;;;;;;;61.47;45.08;;;;;;;;;;10321403;28;20080;-62
2022/12/23 18:34:20;;;;;;;68.60;42.35;;;;;;;;;;10319335;28;20537;-63
2022/12/23 18:39:20;;;;;;;67.90;48.10;;;;;;;;;;10320649;28;20108;-63
2022/12/23 18:44:19;;;;;;;61.35;41.95;;;;;;;;;;10320368;28;20469;-63
2022/12/23 18:49:18;;;;;;;60.78;40.72;;;;;;;;;;10301807;28;20057;-63
2022/12/23 18:54:16;;;;;;;66.32;45.85;;;;;;;;;;10320248;28;20477;-63
2022/12/23 18:59:17;;;;;;;87.60;55.60;;;;;;;;;;10319988;28;20091;-62
2022/12/23 19:04:26;;;;;;;84.03;52.47;;;;;;;;;;10319333;28;20044;-63
2022/12/23 19:09:24;;;;;;;83.15;53.15;;;;;;;;;;10319449;28;20072;-63
2022/12/23 19:14:24;;;;;;;95.47;59.50;;;;;;;;;;10318987;28;20080;-63
2022/12/23 19:19:22;;;;;;;88.22;53.15;;;;;;;;;;10318467;28;20529;-63
2022/12/23 19:24:20;;;;;;;83.90;53.88;;;;;;;;;;10318131;28;20084;-64
2022/12/23 19:29:18;;;;;;;116.55;65.20;;;;;;;;;;10318287;28;20056;-63
2022/12/23 19:34:18;;;;;;;115.88;57.70;;;;;;;;;;10301180;28;20044;-63
2022/12/23 19:39:19;;;;;;;86.35;55.75;;;;;;;;;;10317715;28;20045;-63
2022/12/23 19:44:17;;;;;;;65.47;46.20;;;;;;;;;;10317101;28;20144;-63
2022/12/23 19:49:15;;;;;;;63.55;42.33;;;;;;;;;;10316502;28;20060;-63
2022/12/23 19:54:19;;;;;;;71.32;44.88;;;;;;;;;;10317349;28;20064;-62
2022/12/23 19:59:17;;;;;;;58.08;41.63;;;;;;;;;;10317278;28;20403;-64
2022/12/23 20:04:15;;;;;;;201.63;112.80;;;;;;;;;;10317188;28;20083;-63
2022/12/23 20:09:14;;;;;;;154.10;100.20;;;;;;;;;;10316648;28;20079;-63
2022/12/23 20:14:14;;;;;;;118.22;72.20;;;;;;;;;;10316921;28;20533;-63
2022/12/23 20:19:12;;;;;;;138.95;88.07;;;;;;;;;;10316647;28;20045;-63
2022/12/23 20:24:10;;;;;;;109.20;71.15;;;;;;;;;;10316281;28;20072;-63
2022/12/23 20:29:09;;;;;;;105.68;66.28;;;;;;;;;;10316489;28;20047;-63
2022/12/23 20:34:10;;;;;;;97.85;62.05;;;;;;;;;;10316235;28;20495;-63
2022/12/23 20:39:09;;;;;;;95.20;60.25;;;;;;;;;;10316221;28;20055;-63
2022/12/23 20:44:07;;;;;;;84.70;55.03;;;;;;;;;;10298004;28;20091;-62
2022/12/23 20:49:26;;;;;;;72.68;51.65;;;;;;;;;;10316622;28;20057;-63
2022/12/23 20:54:25;;;;;;;92.95;63.83;;;;;;;;;;10315679;28;20056;-63
2022/12/23 20:59:30;;;;;;;78.50;50.72;;;;;;;;;;10320134;28;20047;-63
2022/12/23 21:04:30;;;;;;;59.40;42.20;;;;;;;;;;10316225;28;20074;-62
2022/12/23 21:09:28;;;;;;;53.65;37.17;;;;;;;;;;10317789;28;20095;-62
2022/12/23 21:14:26;;;;;;;58.63;38.08;;;;;;;;;;10318261;28;20072;-63
2022/12/23 21:19:25;;;;;;;52.13;37.17;;;;;;;;;;10318800;28;20502;-64
2022/12/23 21:24:25;;;;;;;67.70;42.00;;;;;;;;;;10318694;28;20080;-63
2022/12/23 21:29:23;;;;;;;66.82;39.90;;;;;;;;;;10320777;28;20158;-64
2022/12/23 21:34:21;;;;;;;77.63;61.42;;;;;;;;;;10316444;28;20083;-63
2022/12/23 21:39:20;;;;;;;49.55;34.13;;;;;;;;;;10320000;28;20052;-62
2022/12/23 21:44:19;;;;;;;49.22;33.65;;;;;;;;;;10320143;28;20083;-63
2022/12/23 21:49:17;;;;;;;50.40;35.15;;;;;;;;;;10320155;28;20465;-62
2022/12/23 21:54:16;;;;;;;42.03;29.95;;;;;;;;;;10319240;28;20425;-62
2022/12/23 21:59:14;;;;;;;35.72;26.63;;;;;;;;;;10320561;28;20036;-63
2022/12/23 22:04:14;;;;;;;35.63;25.45;;;;;;;;;;10319602;28;20080;-64
2022/12/23 22:09:13;;;;;;;44.95;30.55;;;;;;;;;;10318691;28;20064;-62
2022/12/23 22:14:15;;;;;;;38.33;26.88;;;;;;;;;;10320294;28;20047;-62
2022/12/23 22:19:14;;;;;;;34.78;24.80;;;;;;;;;;10319092;28;20106;-63
2022/12/23 22:24:13;;;;;;;38.28;26.45;;;;;;;;;;10318949;28;20076;-62
2022/12/23 22:29:11;;;;;;;31.08;24.05;;;;;;;;;;10319142;28;20441;-62
2022/12/23 22:34:12;;;;;;;48.13;30.48;;;;;;;;;;10319143;28;20047;-62
2022/12/23 22:39:13;;;;;;;30.95;23.05;;;;;;;;;;10319211;28;20079;-62
2022/12/23 22:44:18;;;;;;;32.25;23.10;;;;;;;;;;10320503;28;20095;-62
2022/12/23 22:49:16;;;;;;;29.65;25.15;;;;;;;;;;10319194;28;20409;-62
2022/12/23 22:54:16;;;;;;;39.45;29.23;;;;;;;;;;10320135;28;20071;-62
2022/12/23 22:59:18;;;;;;;40.22;29.88;;;;;;;;;;10319061;28;20033;-62
2022/12/23 23:04:17;;;;;;;65.30;45.92;;;;;;;;;;10319186;28;20105;-62
2022/12/23 23:09:17;;;;;;;83.25;55.50;;;;;;;;;;10318959;28;20040;-63
2022/12/23 23:14:17;;;;;;;46.47;35.33;;;;;;;;;;10318334;28;20402;-63
2022/12/23 23:19:19;;;;;;;44.20;33.97;;;;;;;;;;10318977;28;20075;-63
2022/12/23 23:24:18;;;;;;;41.97;29.67;;;;;;;;;;10318479;28;20087;-63
2022/12/23 23:29:17;;;;;;;42.65;30.85;;;;;;;;;;10317428;28;20486;-63
2022/12/23 23:34:15;;;;;;;36.45;28.30;;;;;;;;;;10318428;28;20047;-63
2022/12/23 23:39:13;;;;;;;31.88;25.20;;;;;;;;;;10317799;28;20075;-63
2022/12/23 23:44:13;;;;;;;27.55;23.38;;;;;;;;;;10318087;28;20072;-63
2022/12/23 23:49:11;;;;;;;26.70;21.90;;;;;;;;;;10317900;28;20079;-64
2022/12/23 23:54:10;;;;;;;29.58;22.90;;;;;;;;;;10317111;28;20497;-64
2022/12/23 23:59:09;;;;;;;32.25;24.05;;;;;;;;;;10317236;28;20138;-62
